sensor_id;sensor_type;location;lat;lon;timestamp;pressure;altitude;pressure_sealevel;temperature;humidity
26711;BME280;18311;52.754;18.118;2022-08-25T00:00:33;100981.20;;;22.12;100.00
26711;BME280;18311;52.754;18.118;2022-08-25T00:03:07;100980.34;;;22.11;100.00
26711;BME280;18311;52.754;18.118;2022-08-25T00:05:38;100996.94;;;22.08;100.00
26711;BME280;18311;52.754;18.118;2022-08-25T00:08:11;101007.85;;;21.64;100.00
26711;BME280;18311;52.754;18.118;2022-08-25T00:10:43;100996.84;;;21.66;100.00
26711;BME280;18311;52.754;18.118;2022-08-25T00:13:16;101000.53;;;21.76;100.00
26711;BME280;18311;52.754;18.118;2022-08-25T00:15:49;101003.50;;;21.73;100.00
26711;BME280;18311;52.754;18.118;2022-08-25T00:18:20;101014.91;;;21.67;100.00
26711;BME280;18311;52.754;18.118;2022-08-25T00:20:51;101012.07;;;21.68;100.00
26711;BME280;18311;52.754;18.118;2022-08-25T00:23:22;101018.45;;;21.79;100.00
26711;BME280;18311;52.754;18.118;2022-08-25T00:25:54;101008.46;;;21.68;100.00
26711;BME280;18311;52.754;18.118;2022-08-25T00:28:25;101005.66;;;21.58;100.00
26711;BME280;18311;52.754;18.118;2022-08-25T00:31:00;101004.40;;;21.62;100.00
26711;BME280;18311;52.754;18.118;2022-08-25T00:33:32;101002.66;;;21.61;100.00
26711;BME280;18311;52.754;18.118;2022-08-25T00:36:03;101006.14;;;21.29;100.00
26711;BME280;18311;52.754;18.118;2022-08-25T00:38:35;101015.41;;;21.38;100.00
26711;BME280;18311;52.754;18.118;2022-08-25T00:41:08;101009.60;;;21.43;100.00
26711;BME280;18311;52.754;18.118;2022-08-25T00:43:45;101017.55;;;21.46;100.00
26711;BME280;18311;52.754;18.118;2022-08-25T00:46:19;101013.91;;;21.45;100.00
26711;BME280;18311;52.754;18.118;2022-08-25T00:49:02;101015.04;;;21.43;100.00
26711;BME280;18311;52.754;18.118;2022-08-25T00:51:57;101019.01;;;21.27;100.00
26711;BME280;18311;52.754;18.118;2022-08-25T00:54:19;101019.01;;;21.27;100.00
26711;BME280;18311;52.754;18.118;2022-08-25T00:56:51;101026.17;;;21.40;100.00
26711;BME280;18311;52.754;18.118;2022-08-25T00:59:26;101027.91;;;21.52;100.00
26711;BME280;18311;52.754;18.118;2022-08-25T01:02:00;101028.77;;;21.53;100.00
26711;BME280;18311;52.754;18.118;2022-08-25T01:04:31;101028.03;;;21.39;100.00
26711;BME280;18311;52.754;18.118;2022-08-25T01:07:03;101037.78;;;21.42;100.00
26711;BME280;18311;52.754;18.118;2022-08-25T01:09:36;101025.68;;;21.12;100.00
26711;BME280;18311;52.754;18.118;2022-08-25T01:12:09;101027.29;;;21.26;100.00
26711;BME280;18311;52.754;18.118;2022-08-25T01:14:41;101033.34;;;21.29;100.00
26711;BME280;18311;52.754;18.118;2022-08-25T01:17:15;101028.14;;;21.26;100.00
26711;BME280;18311;52.754;18.118;2022-08-25T01:19:47;101026.30;;;21.16;100.00
26711;BME280;18311;52.754;18.118;2022-08-25T01:22:18;101016.91;;;21.08;100.00
26711;BME280;18311;52.754;18.118;2022-08-25T01:25:04;101017.30;;;21.04;100.00
26711;BME280;18311;52.754;18.118;2022-08-25T01:27:35;101015.19;;;21.07;100.00
26711;BME280;18311;52.754;18.118;2022-08-25T01:30:08;101015.68;;;20.90;100.00
26711;BME280;18311;52.754;18.118;2022-08-25T01:32:39;101012.45;;;20.96;100.00
26711;BME280;18311;52.754;18.118;2022-08-25T01:35:11;101007.76;;;20.87;100.00
26711;BME280;18311;52.754;18.118;2022-08-25T01:37:42;101008.58;;;20.65;100.00
26711;BME280;18311;52.754;18.118;2022-08-25T01:40:13;101011.34;;;20.87;100.00
26711;BME280;18311;52.754;18.118;2022-08-25T01:45:34;101004.42;;;20.83;100.00
26711;BME280;18311;52.754;18.118;2022-08-25T01:48:07;101000.60;;;20.97;100.00
26711;BME280;18311;52.754;18.118;2022-08-25T01:50:39;101001.64;;;20.61;100.00
26711;BME280;18311;52.754;18.118;2022-08-25T01:53:18;101013.16;;;20.64;100.00
26711;BME280;18311;52.754;18.118;2022-08-25T01:55:52;101008.86;;;20.73;100.00
26711;BME280;18311;52.754;18.118;2022-08-25T01:58:30;101011.92;;;20.68;100.00
26711;BME280;18311;52.754;18.118;2022-08-25T02:01:05;101019.25;;;20.44;100.00
26711;BME280;18311;52.754;18.118;2022-08-25T02:03:39;101023.20;;;20.40;100.00
26711;BME280;18311;52.754;18.118;2022-08-25T02:06:17;101017.14;;;20.36;100.00
26711;BME280;18311;52.754;18.118;2022-08-25T02:08:56;101015.44;;;20.46;100.00
26711;BME280;18311;52.754;18.118;2022-08-25T02:11:29;101015.16;;;20.38;100.00
26711;BME280;18311;52.754;18.118;2022-08-25T02:14:01;101020.96;;;20.09;100.00
26711;BME280;18311;52.754;18.118;2022-08-25T02:16:34;101027.60;;;20.29;100.00
26711;BME280;18311;52.754;18.118;2022-08-25T02:19:08;101030.20;;;20.31;100.00
26711;BME280;18311;52.754;18.118;2022-08-25T02:21:40;101019.70;;;20.02;100.00
26711;BME280;18311;52.754;18.118;2022-08-25T02:24:12;101028.14;;;20.10;100.00
26711;BME280;18311;52.754;18.118;2022-08-25T02:26:44;101016.00;;;20.27;100.00
26711;BME280;18311;52.754;18.118;2022-08-25T02:29:16;101023.42;;;20.01;100.00
26711;BME280;18311;52.754;18.118;2022-08-25T02:31:48;101027.43;;;20.19;100.00
26711;BME280;18311;52.754;18.118;2022-08-25T02:34:19;101026.69;;;20.17;100.00
26711;BME280;18311;52.754;18.118;2022-08-25T02:36:52;101023.83;;;20.08;100.00
26711;BME280;18311;52.754;18.118;2022-08-25T02:39:23;101020.07;;;19.97;100.00
26711;BME280;18311;52.754;18.118;2022-08-25T02:41:54;101017.39;;;20.09;100.00
26711;BME280;18311;52.754;18.118;2022-08-25T02:44:26;101010.68;;;20.26;100.00
26711;BME280;18311;52.754;18.118;2022-08-25T02:46:57;101007.45;;;20.21;100.00
26711;BME280;18311;52.754;18.118;2022-08-25T02:49:28;101008.31;;;20.21;100.00
26711;BME280;18311;52.754;18.118;2022-08-25T02:52:01;101010.73;;;20.13;100.00
26711;BME280;18311;52.754;18.118;2022-08-25T02:54:32;101017.47;;;19.96;100.00
26711;BME280;18311;52.754;18.118;2022-08-25T02:57:03;101021.25;;;20.17;100.00
26711;BME280;18311;52.754;18.118;2022-08-25T02:59:35;101015.94;;;20.16;100.00
26711;BME280;18311;52.754;18.118;2022-08-25T03:02:07;101017.91;;;20.14;100.00
26711;BME280;18311;52.754;18.118;2022-08-25T03:04:39;101016.77;;;20.05;100.00
26711;BME280;18311;52.754;18.118;2022-08-25T03:07:11;101021.48;;;20.14;100.00
26711;BME280;18311;52.754;18.118;2022-08-25T03:09:44;101023.94;;;20.06;100.00
26711;BME280;18311;52.754;18.118;2022-08-25T03:12:16;101016.47;;;19.97;100.00
26711;BME280;18311;52.754;18.118;2022-08-25T03:14:49;101024.61;;;19.97;100.00
26711;BME280;18311;52.754;18.118;2022-08-25T03:17:20;101022.53;;;20.00;100.00
26711;BME280;18311;52.754;18.118;2022-08-25T03:19:52;101024.91;;;20.05;100.00
26711;BME280;18311;52.754;18.118;2022-08-25T03:22:27;101029.63;;;20.14;100.00
26711;BME280;18311;52.754;18.118;2022-08-25T03:24:58;101023.97;;;20.17;100.00
26711;BME280;18311;52.754;18.118;2022-08-25T03:27:32;101023.68;;;20.09;100.00
26711;BME280;18311;52.754;18.118;2022-08-25T03:30:07;101026.77;;;20.40;100.00
26711;BME280;18311;52.754;18.118;2022-08-25T03:32:38;101026.48;;;20.32;100.00
26711;BME280;18311;52.754;18.118;2022-08-25T03:35:09;101026.94;;;20.50;100.00
26711;BME280;18311;52.754;18.118;2022-08-25T03:37:43;101023.61;;;20.58;100.00
26711;BME280;18311;52.754;18.118;2022-08-25T03:40:17;101029.78;;;20.60;100.00
26711;BME280;18311;52.754;18.118;2022-08-25T03:42:48;101040.22;;;20.66;100.00
26711;BME280;18311;52.754;18.118;2022-08-25T03:45:21;101044.46;;;20.22;100.00
26711;BME280;18311;52.754;18.118;2022-08-25T03:47:52;101049.35;;;20.41;100.00
26711;BME280;18311;52.754;18.118;2022-08-25T03:50:23;101045.55;;;20.43;100.00
26711;BME280;18311;52.754;18.118;2022-08-25T03:52:56;101043.34;;;20.48;100.00
26711;BME280;18311;52.754;18.118;2022-08-25T03:55:29;101053.70;;;20.43;100.00
26711;BME280;18311;52.754;18.118;2022-08-25T03:58:01;101051.44;;;20.37;100.00
26711;BME280;18311;52.754;18.118;2022-08-25T04:00:33;101046.17;;;20.11;100.00
26711;BME280;18311;52.754;18.118;2022-08-25T04:03:05;101037.97;;;20.35;100.00
26711;BME280;18311;52.754;18.118;2022-08-25T04:05:36;101033.95;;;20.41;100.00
26711;BME280;18311;52.754;18.118;2022-08-25T04:08:07;101039.74;;;20.48;100.00
26711;BME280;18311;52.754;18.118;2022-08-25T04:10:38;101037.13;;;20.35;100.00
26711;BME280;18311;52.754;18.118;2022-08-25T04:13:10;101038.77;;;20.49;100.00
26711;BME280;18311;52.754;18.118;2022-08-25T04:15:42;101028.77;;;20.49;100.00
26711;BME280;18311;52.754;18.118;2022-08-25T04:18:14;101029.16;;;20.56;100.00
26711;BME280;18311;52.754;18.118;2022-08-25T04:20:45;101032.61;;;20.58;100.00
26711;BME280;18311;52.754;18.118;2022-08-25T04:23:17;101030.55;;;20.62;100.00
26711;BME280;18311;52.754;18.118;2022-08-25T04:25:48;101035.89;;;20.39;100.00
26711;BME280;18311;52.754;18.118;2022-08-25T04:28:19;101029.25;;;20.43;100.00
26711;BME280;18311;52.754;18.118;2022-08-25T04:30:51;101031.02;;;20.55;100.00
26711;BME280;18311;52.754;18.118;2022-08-25T04:33:22;101018.91;;;20.60;100.00
26711;BME280;18311;52.754;18.118;2022-08-25T04:35:55;101022.75;;;20.57;100.00
26711;BME280;18311;52.754;18.118;2022-08-25T04:38:26;101010.83;;;20.71;100.00
26711;BME280;18311;52.754;18.118;2022-08-25T04:41:00;101016.31;;;20.58;100.00
26711;BME280;18311;52.754;18.118;2022-08-25T04:43:33;101014.64;;;20.68;100.00
26711;BME280;18311;52.754;18.118;2022-08-25T04:46:06;101011.92;;;20.68;100.00
26711;BME280;18311;52.754;18.118;2022-08-25T04:48:40;101003.56;;;20.36;100.00
26711;BME280;18311;52.754;18.118;2022-08-25T04:51:14;101021.14;;;20.19;100.00
26711;BME280;18311;52.754;18.118;2022-08-25T04:53:46;101012.16;;;20.30;100.00
26711;BME280;18311;52.754;18.118;2022-08-25T04:56:19;101006.50;;;20.33;100.00
26711;BME280;18311;52.754;18.118;2022-08-25T04:58:52;101017.27;;;20.46;100.00
26711;BME280;18311;52.754;18.118;2022-08-25T05:01:24;101011.21;;;20.42;100.00
26711;BME280;18311;52.754;18.118;2022-08-25T05:03:58;101014.88;;;20.65;100.00
26711;BME280;18311;52.754;18.118;2022-08-25T05:06:31;101015.45;;;20.58;100.00
26711;BME280;18311;52.754;18.118;2022-08-25T05:09:03;101010.64;;;20.61;100.00
26711;BME280;18311;52.754;18.118;2022-08-25T05:11:36;101019.69;;;20.62;100.00
26711;BME280;18311;52.754;18.118;2022-08-25T05:14:07;101023.09;;;20.52;100.00
26711;BME280;18311;52.754;18.118;2022-08-25T05:16:40;101023.37;;;20.61;100.00
26711;BME280;18311;52.754;18.118;2022-08-25T05:19:12;101009.70;;;20.62;100.00
26711;BME280;18311;52.754;18.118;2022-08-25T05:21:43;101019.59;;;20.39;100.00
26711;BME280;18311;52.754;18.118;2022-08-25T05:24:15;101015.22;;;20.61;100.00
26711;BME280;18311;52.754;18.118;2022-08-25T05:26:46;101012.42;;;20.62;100.00
26711;BME280;18311;52.754;18.118;2022-08-25T05:29:19;101007.38;;;20.69;100.00
26711;BME280;18311;52.754;18.118;2022-08-25T05:31:50;101011.77;;;20.59;100.00
26711;BME280;18311;52.754;18.118;2022-08-25T05:34:22;101006.09;;;20.62;100.00
26711;BME280;18311;52.754;18.118;2022-08-25T05:36:54;101008.58;;;20.65;100.00
26711;BME280;18311;52.754;18.118;2022-08-25T05:39:27;101007.64;;;20.42;100.00
26711;BME280;18311;52.754;18.118;2022-08-25T05:42:00;101007.64;;;20.42;100.00
26711;BME280;18311;52.754;18.118;2022-08-25T05:44:31;101000.02;;;20.58;100.00
26711;BME280;18311;52.754;18.118;2022-08-25T05:47:03;101003.97;;;20.54;100.00
26711;BME280;18311;52.754;18.118;2022-08-25T05:49:34;101000.94;;;20.70;100.00
26711;BME280;18311;52.754;18.118;2022-08-25T05:52:05;101002.41;;;20.63;100.00
26711;BME280;18311;52.754;18.118;2022-08-25T05:54:38;100999.70;;;20.74;100.00
26711;BME280;18311;52.754;18.118;2022-08-25T05:57:09;100992.75;;;20.59;100.00
26711;BME280;18311;52.754;18.118;2022-08-25T05:59:41;100991.34;;;20.88;100.00
26711;BME280;18311;52.754;18.118;2022-08-25T06:02:12;100990.47;;;20.99;100.00
26711;BME280;18311;52.754;18.118;2022-08-25T06:04:56;100990.77;;;20.61;100.00
26711;BME280;18311;52.754;18.118;2022-08-25T06:07:29;100990.09;;;20.92;100.00
26711;BME280;18311;52.754;18.118;2022-08-25T06:10:02;100993.68;;;21.04;100.00
26711;BME280;18311;52.754;18.118;2022-08-25T06:12:34;100990.84;;;21.06;100.00
26711;BME280;18311;52.754;18.118;2022-08-25T06:15:05;100985.65;;;21.03;100.00
26711;BME280;18311;52.754;18.118;2022-08-25T06:17:37;100997.77;;;20.99;100.00
26711;BME280;18311;52.754;18.118;2022-08-25T06:20:16;100994.53;;;21.27;100.00
26711;BME280;18311;52.754;18.118;2022-08-25T06:22:49;101002.20;;;21.34;100.00
26711;BME280;18311;52.754;18.118;2022-08-25T06:25:23;101004.65;;;21.37;100.00
26711;BME280;18311;52.754;18.118;2022-08-25T06:27:55;101011.34;;;21.33;100.00
26711;BME280;18311;52.754;18.118;2022-08-25T06:30:26;101015.31;;;21.51;100.00
26711;BME280;18311;52.754;18.118;2022-08-25T06:32:57;101014.31;;;21.52;100.00
26711;BME280;18311;52.754;18.118;2022-08-25T06:35:29;101014.55;;;21.49;100.00
26711;BME280;18311;52.754;18.118;2022-08-25T06:38:01;101019.63;;;21.54;100.00
26711;BME280;18311;52.754;18.118;2022-08-25T06:40:33;101022.34;;;21.54;100.00
26711;BME280;18311;52.754;18.118;2022-08-25T06:43:04;101022.06;;;21.68;100.00
26711;BME280;18311;52.754;18.118;2022-08-25T06:45:37;101010.27;;;21.90;100.00
26711;BME280;18311;52.754;18.118;2022-08-25T06:48:08;101007.80;;;21.87;100.00
26711;BME280;18311;52.754;18.118;2022-08-25T06:50:40;101013.05;;;22.00;100.00
26711;BME280;18311;52.754;18.118;2022-08-25T06:53:14;101004.21;;;21.86;100.00
26711;BME280;18311;52.754;18.118;2022-08-25T06:55:44;101014.56;;;21.93;100.00
26711;BME280;18311;52.754;18.118;2022-08-25T06:58:16;101016.20;;;21.84;100.00
26711;BME280;18311;52.754;18.118;2022-08-25T07:00:50;101025.00;;;22.20;100.00
26711;BME280;18311;52.754;18.118;2022-08-25T07:03:21;101014.92;;;21.99;100.00
26711;BME280;18311;52.754;18.118;2022-08-25T07:05:53;101009.56;;;22.41;100.00
26711;BME280;18311;52.754;18.118;2022-08-25T07:08:28;101002.11;;;22.43;100.00
26711;BME280;18311;52.754;18.118;2022-08-25T07:11:10;101002.79;;;22.57;100.00
26711;BME280;18311;52.754;18.118;2022-08-25T07:13:40;101000.78;;;22.59;100.00
26711;BME280;18311;52.754;18.118;2022-08-25T07:16:11;101011.64;;;22.49;100.00
26711;BME280;18311;52.754;18.118;2022-08-25T07:18:45;101009.08;;;22.78;100.00
26711;BME280;18311;52.754;18.118;2022-08-25T07:21:16;101008.02;;;22.70;100.00
26711;BME280;18311;52.754;18.118;2022-08-25T07:23:54;101006.58;;;22.66;100.00
26711;BME280;18311;52.754;18.118;2022-08-25T07:26:30;101007.85;;;22.40;100.00
26711;BME280;18311;52.754;18.118;2022-08-25T07:29:13;101009.13;;;22.25;100.00
26711;BME280;18311;52.754;18.118;2022-08-25T07:31:38;101007.72;;;22.42;100.00
26711;BME280;18311;52.754;18.118;2022-08-25T07:34:10;101002.79;;;22.57;100.00
26711;BME280;18311;52.754;18.118;2022-08-25T07:36:57;101012.63;;;22.48;100.00
26711;BME280;18311;52.754;18.118;2022-08-25T07:39:28;101001.34;;;22.53;100.00
26711;BME280;18311;52.754;18.118;2022-08-25T07:42:00;101006.37;;;22.36;100.00
26711;BME280;18311;52.754;18.118;2022-08-25T07:44:31;101000.32;;;22.54;100.00
26711;BME280;18311;52.754;18.118;2022-08-25T07:47:03;101018.62;;;22.63;100.00
26711;BME280;18311;52.754;18.118;2022-08-25T07:49:34;101028.98;;;22.48;100.00
26711;BME280;18311;52.754;18.118;2022-08-25T07:52:07;101022.59;;;22.59;100.00
26711;BME280;18311;52.754;18.118;2022-08-25T07:54:38;101022.59;;;22.59;100.00
26711;BME280;18311;52.754;18.118;2022-08-25T07:57:11;101027.11;;;22.49;100.00
26711;BME280;18311;52.754;18.118;2022-08-25T07:59:42;101017.73;;;22.62;100.00
26711;BME280;18311;52.754;18.118;2022-08-25T08:02:14;101027.31;;;22.36;100.00
26711;BME280;18311;52.754;18.118;2022-08-25T08:04:49;101015.14;;;22.61;100.00
26711;BME280;18311;52.754;18.118;2022-08-25T08:07:24;101017.14;;;22.38;100.00
26711;BME280;18311;52.754;18.118;2022-08-25T08:09:58;101021.34;;;22.42;100.00
26711;BME280;18311;52.754;18.118;2022-08-25T08:12:31;101020.16;;;22.56;100.00
26711;BME280;18311;52.754;18.118;2022-08-25T08:15:04;101025.44;;;22.36;100.00
26711;BME280;18311;52.754;18.118;2022-08-25T08:17:41;101028.38;;;22.44;100.00
26711;BME280;18311;52.754;18.118;2022-08-25T08:20:13;101022.88;;;22.56;100.00
26711;BME280;18311;52.754;18.118;2022-08-25T08:22:47;101017.61;;;22.43;100.00
26711;BME280;18311;52.754;18.118;2022-08-25T08:25:18;101021.99;;;22.55;100.00
26711;BME280;18311;52.754;18.118;2022-08-25T08:27:51;101022.87;;;22.77;100.00
26711;BME280;18311;52.754;18.118;2022-08-25T08:30:24;101014.88;;;22.64;100.00
26711;BME280;18311;52.754;18.118;2022-08-25T08:32:55;101014.40;;;22.80;100.00
26711;BME280;18311;52.754;18.118;2022-08-25T08:35:28;101013.31;;;22.92;100.00
26711;BME280;18311;52.754;18.118;2022-08-25T08:38:00;101008.55;;;23.06;100.00
26711;BME280;18311;52.754;18.118;2022-08-25T08:40:34;101016.34;;;22.89;100.00
26711;BME280;18311;52.754;18.118;2022-08-25T08:43:08;101011.73;;;22.90;100.00
26711;BME280;18311;52.754;18.118;2022-08-25T08:45:51;101015.55;;;22.77;100.00
26711;BME280;18311;52.754;18.118;2022-08-25T08:51:18;101008.30;;;23.18;100.00
26711;BME280;18311;52.754;18.118;2022-08-25T08:56:41;101015.95;;;23.25;100.00
26711;BME280;18311;52.754;18.118;2022-08-25T08:59:20;101010.86;;;23.51;100.00
26711;BME280;18311;52.754;18.118;2022-08-25T09:01:55;101010.02;;;23.60;100.00
26711;BME280;18311;52.754;18.118;2022-08-25T09:04:37;101008.50;;;23.87;100.00
26711;BME280;18311;52.754;18.118;2022-08-25T09:07:16;101008.52;;;23.97;100.00
26711;BME280;18311;52.754;18.118;2022-08-25T09:09:49;100990.84;;;24.10;100.00
26711;BME280;18311;52.754;18.118;2022-08-25T09:15:09;100990.55;;;24.04;100.00
26711;BME280;18311;52.754;18.118;2022-08-25T09:20:39;100990.13;;;24.08;100.00
26711;BME280;18311;52.754;18.118;2022-08-25T09:23:33;100994.73;;;24.18;100.00
26711;BME280;18311;52.754;18.118;2022-08-25T09:26:27;100984.23;;;24.33;100.00
26711;BME280;18311;52.754;18.118;2022-08-25T09:29:09;100992.70;;;24.20;100.00
26711;BME280;18311;52.754;18.118;2022-08-25T09:31:45;100995.27;;;24.41;100.00
26711;BME280;18311;52.754;18.118;2022-08-25T09:34:22;100979.13;;;24.77;100.00
26711;BME280;18311;52.754;18.118;2022-08-25T09:36:53;100982.08;;;24.93;100.00
26711;BME280;18311;52.754;18.118;2022-08-25T09:39:25;100978.85;;;24.70;100.00
26711;BME280;18311;52.754;18.118;2022-08-25T09:41:58;100965.94;;;25.00;100.00
26711;BME280;18311;52.754;18.118;2022-08-25T09:44:40;100970.10;;;25.59;100.00
26711;BME280;18311;52.754;18.118;2022-08-25T09:47:23;100967.05;;;25.44;100.00
26711;BME280;18311;52.754;18.118;2022-08-25T09:50:02;100964.30;;;25.44;100.00
26711;BME280;18311;52.754;18.118;2022-08-25T09:52:48;100964.42;;;25.71;100.00
26711;BME280;18311;52.754;18.118;2022-08-25T09:55:32;100961.82;;;25.51;100.00
26711;BME280;18311;52.754;18.118;2022-08-25T09:58:12;100954.97;;;26.01;100.00
26711;BME280;18311;52.754;18.118;2022-08-25T10:00:38;100954.07;;;25.82;100.00
26711;BME280;18311;52.754;18.118;2022-08-25T10:06:00;100928.53;;;26.36;100.00
26711;BME280;18311;52.754;18.118;2022-08-25T10:08:37;100929.36;;;25.74;100.00
26711;BME280;18311;52.754;18.118;2022-08-25T10:11:11;100924.52;;;26.04;100.00
26711;BME280;18311;52.754;18.118;2022-08-25T10:13:47;100921.86;;;25.94;100.00
26711;BME280;18311;52.754;18.118;2022-08-25T10:16:26;100914.80;;;26.10;100.00
26711;BME280;18311;52.754;18.118;2022-08-25T10:19:11;100914.28;;;26.59;100.00
26711;BME280;18311;52.754;18.118;2022-08-25T10:21:47;100908.52;;;26.44;100.00
26711;BME280;18311;52.754;18.118;2022-08-25T10:24:22;100901.02;;;26.46;100.00
26711;BME280;18311;52.754;18.118;2022-08-25T10:32:33;100896.70;;;26.43;100.00
26711;BME280;18311;52.754;18.118;2022-08-25T10:35:11;100896.83;;;26.33;100.00
26711;BME280;18311;52.754;18.118;2022-08-25T10:37:52;100892.13;;;26.26;100.00
26711;BME280;18311;52.754;18.118;2022-08-25T10:46:15;100884.95;;;26.85;100.00
26711;BME280;18311;52.754;18.118;2022-08-25T10:49:04;100879.99;;;26.89;100.00
26711;BME280;18311;52.754;18.118;2022-08-25T10:54:34;100866.38;;;26.71;100.00
26711;BME280;18311;52.754;18.118;2022-08-25T10:59:59;100865.23;;;26.55;100.00
26711;BME280;18311;52.754;18.118;2022-08-25T11:08:31;100854.91;;;27.26;100.00
26711;BME280;18311;52.754;18.118;2022-08-25T11:10:59;100845.28;;;27.14;100.00
26711;BME280;18311;52.754;18.118;2022-08-25T11:13:50;100845.69;;;27.36;100.00
26711;BME280;18311;52.754;18.118;2022-08-25T11:16:31;100847.66;;;27.09;100.00
26711;BME280;18311;52.754;18.118;2022-08-25T11:19:00;100837.13;;;27.55;100.00
26711;BME280;18311;52.754;18.118;2022-08-25T11:21:42;100834.52;;;27.29;100.00
26711;BME280;18311;52.754;18.118;2022-08-25T11:24:31;100844.48;;;27.30;100.00
26711;BME280;18311;52.754;18.118;2022-08-25T11:27:04;100834.20;;;27.81;100.00
26711;BME280;18311;52.754;18.118;2022-08-25T11:29:37;100827.86;;;27.81;100.00
26711;BME280;18311;52.754;18.118;2022-08-25T11:32:11;100825.47;;;27.61;100.00
26711;BME280;18311;52.754;18.118;2022-08-25T11:34:42;100818.57;;;27.90;100.00
26711;BME280;18311;52.754;18.118;2022-08-25T11:37:23;100819.27;;;28.09;100.00
26711;BME280;18311;52.754;18.118;2022-08-25T11:42:47;100812.04;;;28.16;100.00
26711;BME280;18311;52.754;18.118;2022-08-25T11:45:34;100812.14;;;28.39;100.00
26711;BME280;18311;52.754;18.118;2022-08-25T11:50:57;100809.05;;;28.42;100.00
26711;BME280;18311;52.754;18.118;2022-08-25T11:53:31;100800.92;;;28.57;100.00
26711;BME280;18311;52.754;18.118;2022-08-25T11:56:11;100803.81;;;28.63;100.00
26711;BME280;18311;52.754;18.118;2022-08-25T11:58:48;100794.52;;;28.73;100.00
26711;BME280;18311;52.754;18.118;2022-08-25T12:04:29;100795.05;;;28.68;100.00
26711;BME280;18311;52.754;18.118;2022-08-25T12:18:17;100775.37;;;28.40;100.00
26711;BME280;18311;52.754;18.118;2022-08-25T12:23:31;100777.98;;;28.25;100.00
26711;BME280;18311;52.754;18.118;2022-08-25T12:26:24;100778.29;;;28.38;100.00
26711;BME280;18311;52.754;18.118;2022-08-25T12:29:08;100778.82;;;28.81;100.00
26711;BME280;18311;52.754;18.118;2022-08-25T12:35:09;100772.73;;;28.55;100.00
26711;BME280;18311;52.754;18.118;2022-08-25T12:37:54;100773.83;;;29.08;100.00
26711;BME280;18311;52.754;18.118;2022-08-25T12:40:34;100771.25;;;29.07;100.00
26711;BME280;18311;52.754;18.118;2022-08-25T12:46:44;100760.78;;;29.02;100.00
26711;BME280;18311;52.754;18.118;2022-08-25T12:51:15;100747.77;;;29.42;100.00
26711;BME280;18311;52.754;18.118;2022-08-25T12:53:51;100748.55;;;29.51;100.00
26711;BME280;18311;52.754;18.118;2022-08-25T12:56:31;100738.89;;;29.55;100.00
26711;BME280;18311;52.754;18.118;2022-08-25T13:10:38;100723.88;;;29.58;100.00
26711;BME280;18311;52.754;18.118;2022-08-25T13:12:57;100734.96;;;29.49;100.00
26711;BME280;18311;52.754;18.118;2022-08-25T13:15:33;100735.30;;;29.69;100.00
26711;BME280;18311;52.754;18.118;2022-08-25T13:18:26;100727.36;;;29.89;100.00
26711;BME280;18311;52.754;18.118;2022-08-25T13:21:32;100728.85;;;29.39;100.00
26711;BME280;18311;52.754;18.118;2022-08-25T13:23:53;100734.94;;;29.34;100.00
26711;BME280;18311;52.754;18.118;2022-08-25T13:26:33;100722.67;;;29.14;100.00
26711;BME280;18311;52.754;18.118;2022-08-25T13:29:18;100726.67;;;29.11;100.00
26711;BME280;18311;52.754;18.118;2022-08-25T13:32:00;100720.83;;;29.52;100.00
26711;BME280;18311;52.754;18.118;2022-08-25T13:34:35;100716.94;;;29.62;100.00
26711;BME280;18311;52.754;18.118;2022-08-25T13:37:14;100710.70;;;29.30;100.00
26711;BME280;18311;52.754;18.118;2022-08-25T13:40:07;100718.00;;;29.61;100.00
26711;BME280;18311;52.754;18.118;2022-08-25T13:42:46;100710.47;;;29.54;100.00
26711;BME280;18311;52.754;18.118;2022-08-25T13:45:22;100711.82;;;29.21;100.00
26711;BME280;18311;52.754;18.118;2022-08-25T13:47:54;100720.89;;;29.44;100.00
26711;BME280;18311;52.754;18.118;2022-08-25T13:50:33;100710.22;;;29.26;100.00
26711;BME280;18311;52.754;18.118;2022-08-25T13:53:14;100702.38;;;29.38;100.00
26711;BME280;18311;52.754;18.118;2022-08-25T13:56:07;100706.86;;;29.16;100.00
26711;BME280;18311;52.754;18.118;2022-08-25T13:58:28;100703.59;;;29.35;100.00
26711;BME280;18311;52.754;18.118;2022-08-25T14:01:19;100696.75;;;29.08;100.00
26711;BME280;18311;52.754;18.118;2022-08-25T14:03:49;100693.33;;;29.06;100.00
26711;BME280;18311;52.754;18.118;2022-08-25T14:06:24;100695.12;;;29.22;100.00
26711;BME280;18311;52.754;18.118;2022-08-25T14:11:55;100687.22;;;29.19;100.00
26711;BME280;18311;52.754;18.118;2022-08-25T14:14:30;100691.13;;;29.25;100.00
26711;BME280;18311;52.754;18.118;2022-08-25T14:19:45;100689.34;;;29.09;100.00
26711;BME280;18311;52.754;18.118;2022-08-25T14:22:17;100678.65;;;28.91;100.00
26711;BME280;18311;52.754;18.118;2022-08-25T14:24:50;100686.33;;;28.72;100.00
26711;BME280;18311;52.754;18.118;2022-08-25T14:27:22;100686.45;;;29.02;100.00
26711;BME280;18311;52.754;18.118;2022-08-25T14:29:54;100692.36;;;28.99;100.00
26711;BME280;18311;52.754;18.118;2022-08-25T14:32:27;100677.49;;;28.85;100.00
26711;BME280;18311;52.754;18.118;2022-08-25T14:34:59;100679.62;;;28.75;100.00